Time;durP1;ratioP1;P1;durP2;ratioP2;P2;SDS_P1;SDS_P2;PMS_P1;PMS_P2;Temp;Humidity;BMP_temperature;BMP_pressure;BME280_temperature;BME280_humidity;BME280_pressure;Samples;Min_cycle;Max_cycle;Signal;HPM_P1;HPM_P2
2021/11/03 00:00:12;;;;;;;3.40;2.77;;;;;;;8.01;83.58;99397.56;5046773;28;20315;-73
2021/11/03 00:02:41;;;;;;;3.90;3.03;;;;;;;7.99;82.79;99405.63;5043788;28;20903;-72
2021/11/03 00:05:09;;;;;;;3.57;2.47;;;;;;;7.98;83.29;99400.44;5040624;28;20206;-73
2021/11/03 00:07:36;;;;;;;4.00;3.10;;;;;;;7.97;83.22;99396.06;5042064;28;20209;-73
2021/11/03 00:10:06;;;;;;;3.30;3.00;;;;;;;7.95;83.16;99400.66;5037909;28;20198;-73
2021/11/03 00:12:32;;;;;;;3.37;2.77;;;;;;;7.92;83.29;99400.84;5042409;28;20205;-72
2021/11/03 00:15:00;;;;;;;4.37;3.03;;;;;;;7.90;82.91;99400.97;5048058;28;20214;-72
2021/11/03 00:17:27;;;;;;;3.93;3.33;;;;;;;7.88;82.94;99407.38;5041651;28;20221;-72
2021/11/03 00:19:53;;;;;;;4.73;3.03;;;;;;;7.87;83.09;99397.72;5039206;28;20206;-72
2021/11/03 00:22:20;;;;;;;4.40;3.50;;;;;;;7.84;83.53;99400.59;5046633;28;20230;-73
2021/11/03 00:24:47;;;;;;;3.53;3.23;;;;;;;7.81;83.69;99401.66;5046863;28;20235;-72
2021/11/03 00:27:14;;;;;;;4.27;3.20;;;;;;;7.80;83.22;99391.16;5047948;28;20213;-72
2021/11/03 00:29:41;;;;;;;4.57;3.00;;;;;;;7.79;83.06;99394.75;5039541;28;20202;-74
2021/11/03 00:32:11;;;;;;;5.00;3.20;;;;;;;7.77;83.62;99397.50;5030057;28;20210;-72
2021/11/03 00:34:38;;;;;;;4.10;3.57;;;;;;;7.77;83.74;99399.31;5046543;28;20228;-72
2021/11/03 00:37:05;;;;;;;3.97;3.37;;;;;;;7.77;83.66;99399.31;5046457;28;20210;-72
2021/11/03 00:39:31;;;;;;;4.30;2.93;;;;;;;7.74;83.19;99386.28;5047904;28;20208;-73
2021/11/03 00:41:58;;;;;;;5.43;3.90;;;;;;;7.72;83.64;99388.19;5044006;28;20236;-72
2021/11/03 00:44:25;;;;;;;4.27;3.70;;;;;;;7.70;83.50;99390.97;5042884;28;20234;-72
2021/11/03 00:46:51;;;;;;;6.10;3.60;;;;;;;7.69;83.77;99397.22;5047503;28;20663;-72
2021/11/03 00:49:20;;;;;;;5.50;3.83;;;;;;;7.70;83.60;99401.56;5044068;28;20210;-73
2021/11/03 00:51:46;;;;;;;8.67;5.07;;;;;;;7.70;83.89;99406.88;5043922;28;20202;-73
2021/11/03 00:54:13;;;;;;;6.13;4.30;;;;;;;7.72;83.88;99406.75;5043470;28;20230;-72
2021/11/03 00:56:40;;;;;;;7.17;4.23;;;;;;;7.73;83.53;99405.78;5049286;28;20206;-72
2021/11/03 00:59:07;;;;;;;6.20;3.77;;;;;;;7.74;84.30;99404.84;5051308;28;20292;-72
2021/11/03 01:01:33;;;;;;;5.53;4.07;;;;;;;7.73;84.27;99392.53;5048696;28;20237;-72
2021/11/03 01:04:00;;;;;;;4.93;3.83;;;;;;;7.74;84.26;99388.94;5045555;28;20620;-72
2021/11/03 01:06:28;;;;;;;5.87;4.27;;;;;;;7.75;84.31;99394.13;5049632;28;20591;-72
2021/11/03 01:08:54;;;;;;;5.17;4.10;;;;;;;7.75;84.82;99386.16;5052493;28;20678;-72
2021/11/03 01:11:21;;;;;;;4.77;3.70;;;;;;;7.76;83.93;99384.38;5039704;28;20211;-72
2021/11/03 01:13:48;;;;;;;6.30;4.67;;;;;;;7.77;83.91;99380.75;5052657;28;20323;-72
2021/11/03 01:16:15;;;;;;;5.77;3.97;;;;;;;7.76;84.39;99387.88;5049186;28;20206;-72
2021/11/03 01:18:42;;;;;;;5.50;4.10;;;;;;;7.76;84.15;99387.03;5034456;28;20210;-72
2021/11/03 01:21:09;;;;;;;5.83;4.50;;;;;;;7.76;84.11;99389.66;5043437;28;20225;-72
2021/11/03 01:23:37;;;;;;;4.90;3.83;;;;;;;7.77;83.99;99386.06;5042800;28;20583;-72
2021/11/03 01:26:04;;;;;;;5.90;4.07;;;;;;;7.77;84.35;99383.41;5052005;28;20225;-73
2021/11/03 01:28:30;;;;;;;4.97;3.67;;;;;;;7.76;83.94;99384.38;5050878;28;20224;-73
2021/11/03 01:30:57;;;;;;;4.63;4.13;;;;;;;7.74;83.93;99388.94;5052651;28;20679;-74
2021/11/03 01:33:23;;;;;;;4.20;3.70;;;;;;;7.74;84.60;99389.78;5050140;28;20228;-73
2021/11/03 01:35:50;;;;;;;4.63;4.13;;;;;;;7.72;84.24;99385.53;5045483;28;20210;-72
2021/11/03 01:38:17;;;;;;;5.03;4.23;;;;;;;7.73;84.39;99389.88;5049690;28;20206;-73
2021/11/03 01:40:47;;;;;;;5.83;4.30;;;;;;;7.70;84.58;99398.06;5040540;28;20474;-72
2021/11/03 01:43:18;;;;;;;4.77;4.30;;;;;;;7.68;84.25;99389.38;5043627;28;20262;-73
2021/11/03 01:45:48;;;;;;;5.73;4.50;;;;;;;7.64;83.73;99389.59;5041611;28;20205;-74
2021/11/03 01:48:14;;;;;;;6.63;4.50;;;;;;;7.63;83.79;99389.72;5042282;28;20202;-74
2021/11/03 01:50:45;;;;;;;6.13;5.00;;;;;;;7.60;84.32;99396.06;5040847;28;20698;-74
2021/11/03 01:53:15;;;;;;;5.80;4.67;;;;;;;7.57;84.06;99390.97;5050108;28;20889;-73
2021/11/03 01:55:48;;;;;;;6.00;4.97;;;;;;;7.55;83.47;99398.19;5044250;28;20209;-71
2021/11/03 01:58:18;;;;;;;6.43;5.27;;;;;;;7.52;84.23;99387.84;5045511;28;20201;-72
2021/11/03 02:00:48;;;;;;;6.50;4.97;;;;;;;7.49;83.69;99390.69;5041291;28;20201;-72
2021/11/03 02:03:18;;;;;;;6.83;5.37;;;;;;;7.46;83.64;99382.97;5040166;28;20232;-72
2021/11/03 02:05:48;;;;;;;5.43;4.87;;;;;;;7.42;83.27;99381.47;5050839;28;20204;-72
2021/11/03 02:08:14;;;;;;;6.30;4.87;;;;;;;7.38;83.53;99377.34;5050620;28;20206;-72
2021/11/03 02:10:41;;;;;;;7.47;5.53;;;;;;;7.35;83.52;99382.84;5051811;28;20212;-72
2021/11/03 02:13:12;;;;;;;7.73;5.93;;;;;;;7.34;83.90;99388.28;5036164;28;20221;-72
2021/11/03 02:15:40;;;;;;;7.30;5.63;;;;;;;7.30;83.30;99383.19;5039330;28;20210;-72
2021/11/03 02:18:09;;;;;;;8.37;5.67;;;;;;;7.28;83.84;99378.94;5033585;28;20202;-72
2021/11/03 02:20:35;;;;;;;9.63;5.80;;;;;;;7.25;84.05;99369.41;5040379;28;20210;-72
2021/11/03 02:23:10;;;;;;;8.80;6.10;;;;;;;7.24;83.42;99378.31;5033761;28;20222;-71
2021/11/03 02:25:43;;;;;;;7.30;6.13;;;;;;;7.21;83.75;99375.03;5048888;28;20208;-72
2021/11/03 02:28:10;;;;;;;10.37;6.37;;;;;;;7.19;83.45;99380.44;5038677;28;20655;-72
2021/11/03 02:30:37;;;;;;;9.80;6.77;;;;;;;7.15;83.68;99373.69;5044207;28;20229;-72
2021/11/03 02:33:08;;;;;;;8.93;6.50;;;;;;;7.13;83.74;99378.22;5044192;28;20239;-73
2021/11/03 02:35:36;;;;;;;7.63;5.93;;;;;;;7.12;83.82;99379.19;5042153;28;20748;-72
2021/11/03 02:38:04;;;;;;;8.13;6.30;;;;;;;7.09;83.49;99381.19;5047105;28;20259;-73
2021/11/03 02:40:46;;;;;;;11.40;7.43;;;;;;;7.06;83.16;99381.38;5038618;28;20208;-72
2021/11/03 02:43:17;;;;;;;9.90;6.73;;;;;;;7.01;83.46;99376.41;5038840;28;20252;-73
2021/11/03 02:45:48;;;;;;;8.40;6.17;;;;;;;6.97;83.22;99375.78;5046723;28;20217;-72
2021/11/03 02:48:15;;;;;;;7.13;5.53;;;;;;;6.94;83.57;99364.56;5048568;28;20285;-72
2021/11/03 02:50:57;;;;;;;8.03;5.67;;;;;;;6.89;83.55;99369.31;5045545;28;20198;-71
2021/11/03 02:53:24;;;;;;;7.30;6.20;;;;;;;6.82;83.33;99382.09;5038895;28;20233;-72
2021/11/03 02:55:52;;;;;;;8.13;6.53;;;;;;;6.75;82.78;99380.84;5050400;28;20217;-73
2021/11/03 02:58:19;;;;;;;7.73;6.60;;;;;;;6.68;82.99;99384.00;5049919;28;20209;-73
2021/11/03 03:00:47;;;;;;;8.50;6.93;;;;;;;6.60;83.02;99382.75;5050256;28;20218;-73
2021/11/03 03:03:14;;;;;;;8.03;6.03;;;;;;;6.57;82.72;99387.38;5040338;28;20232;-72
2021/11/03 03:05:44;;;;;;;9.53;6.87;;;;;;;6.52;83.14;99394.75;5035601;28;20210;-71
2021/11/03 03:08:10;;;;;;;8.40;6.67;;;;;;;6.50;83.40;99386.94;5046890;28;20209;-72
2021/11/03 03:10:37;;;;;;;12.13;7.00;;;;;;;6.48;83.43;99387.97;5037801;28;20213;-73
2021/11/03 03:13:05;;;;;;;9.43;7.07;;;;;;;6.46;83.05;99392.50;5035941;28;20218;-72
2021/11/03 03:15:31;;;;;;;10.53;8.00;;;;;;;6.44;83.19;99402.38;5050015;28;20209;-72
2021/11/03 03:17:58;;;;;;;10.30;7.53;;;;;;;6.41;83.66;99402.56;5043405;28;20197;-73
2021/11/03 03:20:24;;;;;;;9.07;7.90;;;;;;;6.39;83.09;99400.03;5050396;28;20221;-72
2021/11/03 03:22:51;;;;;;;13.30;7.80;;;;;;;6.36;83.24;99409.97;5049814;28;20240;-73
2021/11/03 03:25:18;;;;;;;8.53;6.87;;;;;;;6.30;83.17;99405.06;5046924;28;20212;-72
2021/11/03 03:27:44;;;;;;;9.17;6.77;;;;;;;6.19;83.25;99409.25;5045024;28;20663;-73
2021/11/03 03:30:12;;;;;;;9.03;6.40;;;;;;;6.11;82.78;99408.06;5040570;28;20225;-72
2021/11/03 03:32:39;;;;;;;9.20;7.20;;;;;;;6.04;83.17;99404.13;5047200;28;20208;-72
2021/11/03 03:35:07;;;;;;;9.63;7.17;;;;;;;5.99;83.35;99406.22;5047532;28;20702;-72
2021/11/03 03:37:33;;;;;;;11.47;7.40;;;;;;;5.95;83.68;99408.19;5047747;28;20423;-72
2021/11/03 03:40:00;;;;;;;9.97;7.27;;;;;;;5.90;83.36;99399.72;5039185;28;20210;-72
2021/11/03 03:42:27;;;;;;;10.67;7.47;;;;;;;5.84;83.21;99400.09;5044685;28;20241;-72
2021/11/03 03:44:53;;;;;;;10.73;6.93;;;;;;;5.81;83.62;99400.28;5041603;28;20209;-72
2021/11/03 03:47:22;;;;;;;9.43;6.90;;;;;;;5.78;83.79;99397.81;5042872;28;20206;-74
2021/11/03 03:49:48;;;;;;;9.33;6.70;;;;;;;5.75;83.26;99404.16;5039669;28;20593;-73
2021/11/03 03:52:15;;;;;;;8.60;6.50;;;;;;;5.69;83.55;99398.41;5036888;28;20683;-73
2021/11/03 03:54:41;;;;;;;6.20;5.20;;;;;;;5.58;82.98;99394.63;5043002;28;20236;-73
2021/11/03 03:57:08;;;;;;;8.13;5.93;;;;;;;5.48;82.74;99393.53;5042572;28;20654;-72
2021/11/03 03:59:34;;;;;;;7.27;5.70;;;;;;;5.39;82.43;99394.09;5045419;28;20213;-72
2021/11/03 04:02:01;;;;;;;8.10;5.83;;;;;;;5.30;82.09;99399.09;5049103;28;20237;-71
2021/11/03 04:04:29;;;;;;;7.60;5.63;;;;;;;5.21;82.14;99405.78;5049305;28;20225;-73
2021/11/03 04:06:56;;;;;;;8.60;6.50;;;;;;;5.16;82.76;99403.44;5040110;28;20589;-73
2021/11/03 04:09:22;;;;;;;9.03;6.63;;;;;;;5.13;82.79;99401.00;5047901;28;20670;-73
2021/11/03 04:11:49;;;;;;;9.97;7.03;;;;;;;5.11;82.56;99396.75;5038064;28;20205;-71
2021/11/03 04:14:16;;;;;;;9.13;6.90;;;;;;;5.10;83.00;99385.34;5041838;28;20238;-72
2021/11/03 04:16:43;;;;;;;9.37;6.97;;;;;;;5.06;82.58;99391.75;5036904;28;20218;-72
2021/11/03 04:19:09;;;;;;;10.33;6.80;;;;;;;5.04;82.91;99382.22;5049454;28;20202;-72
2021/11/03 04:21:37;;;;;;;9.33;6.90;;;;;;;5.03;82.99;99383.16;5049239;28;20698;-73
2021/11/03 04:24:04;;;;;;;11.20;7.50;;;;;;;5.04;83.38;99385.69;5043021;28;20717;-73
2021/11/03 04:26:34;;;;;;;10.37;7.00;;;;;;;5.04;83.04;99387.50;5038742;28;20218;-73
2021/11/03 04:29:01;;;;;;;11.50;7.40;;;;;;;5.04;83.24;99393.63;5044251;28;20206;-73
2021/11/03 04:31:28;;;;;;;10.27;7.90;;;;;;;5.05;83.83;99381.28;5047574;28;20209;-72
2021/11/03 04:33:55;;;;;;;11.13;7.50;;;;;;;5.04;83.52;99379.56;5050676;28;20226;-72
2021/11/03 04:36:23;;;;;;;9.40;6.93;;;;;;;5.04;83.38;99379.56;5051153;28;20212;-74
2021/11/03 04:38:53;;;;;;;11.20;7.70;;;;;;;5.04;83.74;99382.22;5048322;28;20590;-72
2021/11/03 04:41:19;;;;;;;9.33;6.93;;;;;;;5.04;83.35;99390.13;5044332;28;20198;-72
2021/11/03 04:43:47;;;;;;;9.93;7.10;;;;;;;4.96;83.34;99390.59;5044585;28;20234;-73
2021/11/03 04:46:14;;;;;;;9.93;7.37;;;;;;;4.90;83.38;99388.34;5036843;28;20209;-73
2021/11/03 04:48:40;;;;;;;9.70;6.80;;;;;;;4.87;83.33;99384.09;5042315;28;20289;-73
2021/11/03 04:51:07;;;;;;;10.20;7.23;;;;;;;4.86;83.55;99386.81;5041110;28;20212;-72
2021/11/03 04:53:33;;;;;;;9.40;7.40;;;;;;;4.84;83.43;99384.25;5048346;28;20232;-72
2021/11/03 04:56:03;;;;;;;13.87;8.03;;;;;;;4.84;83.89;99386.91;5047617;28;20198;-74
2021/11/03 04:58:29;;;;;;;10.00;7.10;;;;;;;4.83;84.31;99401.06;5041644;28;20292;-72
2021/11/03 05:00:56;;;;;;;13.03;8.50;;;;;;;4.85;83.94;99404.44;5043859;28;20202;-72
2021/11/03 05:03:23;;;;;;;13.37;9.13;;;;;;;4.87;84.28;99407.81;5037417;28;20233;-73
2021/11/03 05:05:52;;;;;;;13.37;8.30;;;;;;;4.88;84.08;99411.31;5038713;28;20206;-72
2021/11/03 05:08:19;;;;;;;9.43;6.67;;;;;;;4.86;83.73;99418.47;5041876;28;20234;-73
2021/11/03 05:10:45;;;;;;;11.10;8.03;;;;;;;4.77;83.72;99419.03;5043656;28;20667;-72
2021/11/03 05:13:13;;;;;;;12.00;8.30;;;;;;;4.67;83.28;99418.69;5043832;28;20228;-74
2021/11/03 05:15:40;;;;;;;13.03;8.20;;;;;;;4.62;84.14;99430.47;5042787;28;20202;-74
2021/11/03 05:18:07;;;;;;;15.10;9.77;;;;;;;4.58;84.24;99431.59;5043361;28;20209;-73
2021/11/03 05:20:33;;;;;;;15.57;9.23;;;;;;;4.56;84.54;99431.69;5047736;28;20198;-71
2021/11/03 05:23:01;;;;;;;13.43;9.37;;;;;;;4.57;84.31;99436.00;5042337;28;20580;-73
2021/11/03 05:25:29;;;;;;;13.97;9.50;;;;;;;4.57;84.82;99433.38;5044002;28;20293;-73
2021/11/03 05:27:56;;;;;;;14.77;8.97;;;;;;;4.56;84.87;99434.31;5041060;28;20240;-73
2021/11/03 05:30:26;;;;;;;15.87;10.13;;;;;;;4.55;84.87;99432.63;5039637;28;20612;-73
2021/11/03 05:32:53;;;;;;;13.43;8.83;;;;;;;4.54;85.26;99437.03;5042717;28;20217;-73
2021/11/03 05:35:20;;;;;;;14.47;9.30;;;;;;;4.51;85.48;99434.56;5041027;28;20696;-73
2021/11/03 05:37:47;;;;;;;13.13;8.30;;;;;;;4.49;84.96;99441.72;5039066;28;20208;-72
2021/11/03 05:40:17;;;;;;;13.10;9.17;;;;;;;4.46;85.17;99425.25;5037915;28;20674;-71
2021/11/03 05:42:44;;;;;;;14.60;9.80;;;;;;;4.44;85.21;99435.88;5044530;28;20575;-72
2021/11/03 05:45:10;;;;;;;15.13;9.70;;;;;;;4.44;85.96;99438.53;5043006;28;20201;-73
2021/11/03 05:47:39;;;;;;;12.33;9.23;;;;;;;4.44;86.37;99437.66;5041874;28;20208;-71
2021/11/03 05:50:06;;;;;;;17.47;9.80;;;;;;;4.44;85.66;99440.31;5037670;28;20685;-71
2021/11/03 05:52:33;;;;;;;15.00;9.67;;;;;;;4.44;85.62;99448.22;5032007;28;20210;-72
2021/11/03 05:54:59;;;;;;;14.37;9.17;;;;;;;4.46;86.31;99446.34;5040591;28;20662;-72
2021/11/03 05:57:29;;;;;;;14.03;9.43;;;;;;;4.46;86.42;99451.63;5038714;28;20210;-71
2021/11/03 05:59:56;;;;;;;14.57;9.63;;;;;;;4.43;86.33;99454.41;5035845;28;20293;-73
2021/11/03 06:02:23;;;;;;;13.63;10.17;;;;;;;4.42;86.01;99455.34;5041601;28;20321;-71
2021/11/03 06:04:51;;;;;;;15.03;10.10;;;;;;;4.40;86.03;99458.06;5063553;22;20247;-76
2021/11/03 06:07:21;;;;;;;13.33;9.43;;;;;;;4.41;86.39;99458.94;5060170;28;20201;-75
2021/11/03 06:09:48;;;;;;;13.90;9.07;;;;;;;4.41;86.55;99456.28;5059903;28;20617;-76
2021/11/03 06:12:15;;;;;;;14.20;9.43;;;;;;;4.41;86.32;99453.66;5069116;28;20212;-76
2021/11/03 06:14:41;;;;;;;13.97;9.00;;;;;;;4.40;86.24;99451.94;5065655;28;20744;-75
2021/11/03 06:17:08;;;;;;;17.43;9.77;;;;;;;4.39;86.01;99458.16;5056827;28;20237;-76
2021/11/03 06:19:35;;;;;;;17.20;10.57;;;;;;;4.39;86.89;99460.78;5063206;28;20216;-76
2021/11/03 06:22:03;;;;;;;14.57;9.97;;;;;;;4.39;87.00;99452.88;5064862;28;20205;-76
2021/11/03 06:24:31;;;;;;;15.27;10.10;;;;;;;4.40;86.45;99457.22;5066519;28;20237;-76
2021/11/03 06:26:58;;;;;;;15.13;10.43;;;;;;;4.39;86.73;99451.09;5067263;28;20217;-76
2021/11/03 06:29:25;;;;;;;14.97;10.03;;;;;;;4.41;87.00;99461.56;5061242;28;20691;-76
2021/11/03 06:31:51;;;;;;;15.70;9.73;;;;;;;4.38;86.93;99469.63;5066019;28;20843;-73
2021/11/03 06:34:17;;;;;;;13.73;9.00;;;;;;;4.34;86.92;99466.31;5067359;28;20287;-74
2021/11/03 06:36:44;;;;;;;13.83;8.67;;;;;;;4.31;87.20;99468.28;5065498;28;20224;-74
2021/11/03 06:39:12;;;;;;;14.03;8.67;;;;;;;4.26;86.42;99473.81;5064268;28;20237;-75
2021/11/03 06:41:41;;;;;;;16.13;10.43;;;;;;;4.26;87.33;99472.97;5067423;28;20220;-73
2021/11/03 06:44:09;;;;;;;16.20;10.63;;;;;;;4.27;87.14;99479.94;5065583;28;22340;-75
2021/11/03 06:46:35;;;;;;;17.73;11.60;;;;;;;4.32;87.78;99491.06;5070382;28;20576;-75
2021/11/03 06:49:03;;;;;;;18.23;10.93;;;;;;;4.34;87.61;99490.03;5063616;28;20216;-75
2021/11/03 06:51:29;;;;;;;15.50;9.90;;;;;;;4.35;87.41;99493.53;5051042;28;20209;-75
2021/11/03 06:53:56;;;;;;;22.20;11.97;;;;;;;4.39;88.28;99489.78;5065734;28;20211;-73
2021/11/03 06:56:24;;;;;;;19.40;10.73;;;;;;;4.44;88.31;99485.97;5065882;28;20225;-76
2021/11/03 06:58:50;;;;;;;21.03;12.73;;;;;;;4.49;88.55;99478.63;5063661;28;20213;-76
2021/11/03 07:01:17;;;;;;;22.30;12.97;;;;;;;4.56;88.52;99484.41;5061372;28;20214;-76
2021/11/03 07:03:46;;;;;;;23.90;13.70;;;;;;;4.63;88.66;99485.78;5053663;28;20225;-75
2021/11/03 07:06:13;;;;;;;24.77;13.10;;;;;;;4.69;89.40;99488.03;5063778;28;20282;-76
2021/11/03 07:08:40;;;;;;;20.60;12.47;;;;;;;4.74;89.02;99488.63;5061393;28;20214;-76
2021/11/03 07:11:07;;;;;;;21.47;12.50;;;;;;;4.76;89.51;99493.81;5055208;28;20224;-75
2021/11/03 07:13:35;;;;;;;22.27;12.13;;;;;;;4.78;89.54;99500.72;5050300;28;20574;-73
2021/11/03 07:16:03;;;;;;;18.23;12.17;;;;;;;4.82;89.37;99506.66;5057179;28;20469;-73
2021/11/03 07:18:29;;;;;;;25.33;14.23;;;;;;;4.85;89.96;99507.31;5058747;28;20210;-74
2021/11/03 07:20:56;;;;;;;22.53;13.70;;;;;;;4.89;89.52;99511.47;5060983;28;20216;-75
2021/11/03 07:23:24;;;;;;;26.37;13.67;;;;;;;4.96;89.80;99511.97;5051297;28;20225;-75
2021/11/03 07:25:50;;;;;;;25.13;14.20;;;;;;;5.02;90.38;99519.50;5065443;28;20229;-75
2021/11/03 07:28:17;;;;;;;24.93;14.17;;;;;;;5.10;90.70;99529.63;5057139;28;20213;-75
2021/11/03 07:30:45;;;;;;;27.47;14.10;;;;;;;5.17;90.79;99525.72;5066575;28;20197;-75
2021/11/03 07:33:13;;;;;;;25.00;13.73;;;;;;;5.22;90.50;99523.63;5069820;28;20696;-76
2021/11/03 07:35:40;;;;;;;27.60;14.63;;;;;;;5.28;91.27;99512.72;5061522;28;20234;-75
2021/11/03 07:38:08;;;;;;;26.07;14.27;;;;;;;5.34;90.74;99515.00;5069223;28;20209;-75
2021/11/03 07:40:39;;;;;;;21.03;12.80;;;;;;;5.39;91.15;99512.06;5063898;28;20205;-75
2021/11/03 07:43:05;;;;;;;27.57;14.70;;;;;;;5.45;91.31;99509.91;5063726;28;20221;-75
2021/11/03 07:45:33;;;;;;;26.00;14.40;;;;;;;5.51;91.60;99514.81;5064464;28;20701;-75
2021/11/03 07:48:02;;;;;;;22.90;13.63;;;;;;;5.56;91.49;99509.25;5069485;28;20212;-75
2021/11/03 07:50:33;;;;;;;23.13;13.43;;;;;;;5.62;91.54;99508.88;5067022;28;20209;-75
2021/11/03 07:53:00;;;;;;;24.13;14.93;;;;;;;5.66;91.91;99504.25;5068165;28;20205;-75
2021/11/03 07:55:27;;;;;;;23.43;14.27;;;;;;;5.72;91.80;99506.53;5066999;28;20310;-75
2021/11/03 07:57:54;;;;;;;24.10;14.63;;;;;;;5.78;92.04;99506.13;5064086;28;20204;-76
2021/11/03 08:00:25;;;;;;;24.67;14.43;;;;;;;5.82;92.64;99505.88;5067676;28;20204;-74
2021/11/03 08:02:52;;;;;;;21.37;13.23;;;;;;;5.87;92.39;99509.06;5064794;28;20202;-76
2021/11/03 08:05:22;;;;;;;22.33;13.43;;;;;;;5.92;92.33;99514.09;5068205;28;20235;-75
2021/11/03 08:07:49;;;;;;;24.07;14.83;;;;;;;5.99;92.37;99511.91;5067794;28;20201;-75
2021/11/03 08:10:18;;;;;;;22.67;13.73;;;;;;;6.04;92.31;99509.84;5071337;28;20201;-75
2021/11/03 08:12:45;;;;;;;22.43;13.47;;;;;;;6.09;92.66;99518.34;5067059;28;20286;-76
2021/11/03 08:15:12;;;;;;;22.27;13.90;;;;;;;6.13;92.75;99511.91;5069331;28;20228;-75
2021/11/03 08:17:40;;;;;;;21.60;14.20;;;;;;;6.18;92.38;99518.59;5068650;28;20215;-75
2021/11/03 08:20:11;;;;;;;27.53;14.57;;;;;;;6.23;92.93;99521.81;5064506;28;20214;-75
2021/11/03 08:22:40;;;;;;;25.87;15.50;;;;;;;6.28;92.66;99509.13;5068818;28;20279;-76
2021/11/03 08:25:07;;;;;;;23.93;15.13;;;;;;;6.34;92.87;99507.03;5065419;28;20611;-76
2021/11/03 08:27:34;;;;;;;25.10;14.70;;;;;;;6.39;92.86;99505.81;5065463;28;20205;-76
2021/11/03 08:30:00;;;;;;;23.03;14.70;;;;;;;6.44;93.23;99505.53;5067822;28;20224;-74
2021/11/03 08:32:30;;;;;;;22.53;14.83;;;;;;;6.50;93.05;99502.47;5071896;28;20215;-75
2021/11/03 08:34:57;;;;;;;23.07;14.90;;;;;;;6.54;92.71;99504.81;5065626;28;20225;-75
2021/11/03 08:37:27;;;;;;;20.30;14.23;;;;;;;6.58;92.76;99497.53;5069610;28;20208;-75
2021/11/03 08:39:56;;;;;;;22.90;14.50;;;;;;;6.63;93.37;99494.59;5069236;28;20670;-75
2021/11/03 08:42:24;;;;;;;20.83;14.03;;;;;;;6.67;92.87;99499.56;5071668;28;20212;-76
2021/11/03 08:44:52;;;;;;;20.67;13.80;;;;;;;6.71;92.93;99497.56;5071410;28;20225;-76
2021/11/03 08:47:19;;;;;;;22.80;13.53;;;;;;;6.76;93.14;99487.53;5070888;28;20197;-76
2021/11/03 08:49:46;;;;;;;21.50;13.60;;;;;;;6.82;92.61;99492.41;5068902;28;20201;-75
2021/11/03 08:52:13;;;;;;;20.30;13.40;;;;;;;6.85;92.93;99493.06;5068303;28;20227;-76
2021/11/03 08:54:41;;;;;;;19.77;13.40;;;;;;;6.90;92.99;99485.66;5071277;28;20228;-75
2021/11/03 08:57:09;;;;;;;17.23;11.70;;;;;;;6.95;93.17;99488.88;5070403;28;20663;-76
2021/11/03 08:59:36;;;;;;;16.83;11.63;;;;;;;7.00;92.25;99490.34;5069445;28;20201;-76
2021/11/03 09:02:03;;;;;;;16.50;12.20;;;;;;;7.02;92.57;99488.44;5069045;28;20203;-75
2021/11/03 09:04:31;;;;;;;18.23;11.17;;;;;;;7.07;92.54;99496.94;5069791;28;20677;-77
2021/11/03 09:06:57;;;;;;;21.90;13.57;;;;;;;7.11;91.95;99488.69;5068538;28;20655;-76
2021/11/03 09:09:24;;;;;;;16.97;12.10;;;;;;;7.14;91.71;99493.78;5070531;28;20212;-75
2021/11/03 09:11:51;;;;;;;18.90;12.60;;;;;;;7.19;92.28;99496.09;5066951;28;20209;-76
2021/11/03 09:14:21;;;;;;;17.60;12.87;;;;;;;7.23;91.85;99497.59;5069670;28;20229;-74
2021/11/03 09:16:48;;;;;;;17.83;12.93;;;;;;;7.28;91.92;99498.13;5069633;28;20201;-75
2021/11/03 09:19:15;;;;;;;21.83;13.87;;;;;;;7.33;91.34;99493.38;5067567;28;20213;-77
2021/11/03 09:21:41;;;;;;;18.33;12.37;;;;;;;7.37;91.59;99493.97;5067524;28;20206;-76
2021/11/03 09:24:08;;;;;;;18.37;12.70;;;;;;;7.42;90.97;99487.44;5067098;28;20228;-74
2021/11/03 09:26:34;;;;;;;19.27;11.63;;;;;;;7.46;91.45;99493.38;5064968;28;20213;-74
2021/11/03 09:29:02;;;;;;;13.63;10.40;;;;;;;7.50;91.27;99482.47;5067041;28;20211;-76
2021/11/03 09:31:31;;;;;;;13.93;10.17;;;;;;;7.55;90.58;99495.38;5070252;28;20565;-76
2021/11/03 09:33:59;;;;;;;15.77;10.90;;;;;;;7.59;90.23;99502.16;5066328;28;20204;-77
2021/11/03 09:36:27;;;;;;;17.00;11.33;;;;;;;7.62;90.58;99497.50;5070049;28;20723;-75
2021/11/03 09:38:54;;;;;;;15.40;10.27;;;;;;;7.66;90.14;99504.28;5067886;28;20198;-76
2021/11/03 09:41:26;;;;;;;14.10;10.07;;;;;;;7.71;90.38;99500.44;5068207;28;20209;-76
2021/11/03 09:43:56;;;;;;;13.03;10.03;;;;;;;7.74;89.75;99494.94;5065442;28;20224;-76
2021/11/03 09:46:27;;;;;;;14.07;10.07;;;;;;;7.76;89.12;99490.38;5065930;28;20225;-76
2021/11/03 09:48:59;;;;;;;14.30;11.07;;;;;;;7.80;89.38;99499.81;5062454;28;20217;-76
2021/11/03 09:51:28;;;;;;;15.87;10.93;;;;;;;7.85;89.60;99495.06;5065408;28;20205;-76
2021/11/03 09:53:57;;;;;;;13.67;10.30;;;;;;;7.91;88.99;99489.28;5068450;28;20201;-76
2021/11/03 09:56:35;;;;;;;13.00;10.10;;;;;;;7.95;89.04;99488.97;5060317;28;20235;-75
2021/11/03 09:59:11;;;;;;;13.60;9.87;;;;;;;7.98;89.14;99493.22;5061945;28;20204;-74
2021/11/03 10:01:45;;;;;;;15.63;10.37;;;;;;;8.00;88.81;99492.16;5057935;28;20209;-76
2021/11/03 10:04:25;;;;;;;14.97;10.23;;;;;;;8.03;88.27;99483.16;5065482;28;20710;-76
2021/11/03 10:06:59;;;;;;;13.83;9.73;;;;;;;8.07;87.71;99492.56;5064119;28;20295;-75
2021/11/03 10:09:25;;;;;;;13.57;10.00;;;;;;;8.10;87.07;99488.84;5061407;28;20209;-74
2021/11/03 10:11:53;;;;;;;14.43;10.03;;;;;;;8.15;87.11;99482.25;5065587;28;20202;-75
2021/11/03 10:14:20;;;;;;;14.03;10.67;;;;;;;8.19;87.60;99485.53;5059465;28;20243;-75
2021/11/03 10:16:49;;;;;;;17.20;10.47;;;;;;;8.22;87.06;99480.88;5061292;28;20212;-75
2021/11/03 10:19:30;;;;;;;18.33;10.73;;;;;;;8.27;87.03;99486.66;5064049;28;20255;-76
2021/11/03 10:21:59;;;;;;;15.47;10.50;;;;;;;8.32;86.40;99487.22;5063725;28;20303;-74
2021/11/03 10:24:37;;;;;;;17.00;11.57;;;;;;;8.37;86.71;99486.03;5065019;28;20229;-77
2021/11/03 10:27:20;;;;;;;15.03;10.77;;;;;;;8.44;86.38;99484.63;5062428;28;20211;-76
2021/11/03 10:29:50;;;;;;;17.50;10.70;;;;;;;8.48;86.53;99486.09;5063495;28;20209;-74
2021/11/03 10:32:32;;;;;;;13.50;9.97;;;;;;;8.52;85.81;99482.28;5063544;28;20582;-76
2021/11/03 10:35:16;;;;;;;13.20;10.17;;;;;;;8.56;85.27;99476.63;5068483;28;20221;-76
2021/11/03 10:37:47;;;;;;;13.63;10.07;;;;;;;8.63;86.30;99491.13;5066788;28;20200;-75
2021/11/03 10:40:25;;;;;;;12.27;9.53;;;;;;;8.68;85.85;99477.53;5065591;28;20576;-76
2021/11/03 10:42:55;;;;;;;12.33;9.87;;;;;;;8.74;85.16;99482.38;5069557;28;20201;-76
2021/11/03 10:45:27;;;;;;;12.37;9.50;;;;;;;8.76;85.48;99469.00;5063188;28;20253;-76
2021/11/03 10:47:56;;;;;;;10.43;8.20;;;;;;;8.79;84.66;99472.25;5058779;28;20237;-76
2021/11/03 10:50:39;;;;;;;10.43;8.50;;;;;;;8.86;84.48;99475.31;5061489;28;20202;-76
2021/11/03 10:53:20;;;;;;;11.57;8.60;;;;;;;8.92;84.49;99464.25;5068220;28;20280;-76
2021/11/03 10:55:50;;;;;;;11.17;8.10;;;;;;;8.97;84.37;99464.72;5065086;28;20228;-74
2021/11/03 10:58:25;;;;;;;9.93;7.60;;;;;;;9.03;84.06;99459.78;5067341;28;20201;-76
2021/11/03 11:00:59;;;;;;;10.97;7.47;;;;;;;9.08;84.14;99455.94;5062612;28;20212;-76
2021/11/03 11:03:28;;;;;;;9.77;7.40;;;;;;;9.11;83.59;99469.00;5066573;28;20200;-76
2021/11/03 11:06:07;;;;;;;8.90;7.43;;;;;;;9.16;83.33;99464.16;5062506;28;20233;-76
2021/11/03 11:08:34;;;;;;;10.30;7.87;;;;;;;9.20;83.19;99458.50;5065628;28;20201;-76
2021/11/03 11:11:04;;;;;;;12.13;8.17;;;;;;;9.26;82.87;99458.06;5068900;28;20685;-76
2021/11/03 11:13:36;;;;;;;10.23;7.90;;;;;;;9.30;83.19;99450.69;5066793;28;20217;-76
2021/11/03 11:16:09;;;;;;;10.73;8.13;;;;;;;9.31;82.37;99458.56;5066784;28;20216;-76
2021/11/03 11:18:53;;;;;;;8.87;7.33;;;;;;;9.34;82.28;99452.13;5063811;28;20213;-77
2021/11/03 11:21:34;;;;;;;8.57;7.47;;;;;;;9.38;82.10;99453.59;5067033;28;20293;-77
2021/11/03 11:24:02;;;;;;;9.10;7.87;;;;;;;9.41;81.66;99448.03;5067850;28;20204;-75
2021/11/03 11:26:37;;;;;;;9.27;7.23;;;;;;;9.45;81.41;99453.97;5067304;28;20223;-76
2021/11/03 11:29:12;;;;;;;10.70;7.80;;;;;;;9.47;81.71;99449.38;5067960;28;20242;-76
2021/11/03 11:31:46;;;;;;;8.70;7.80;;;;;;;9.47;81.17;99452.03;5068805;28;20893;-76
2021/11/03 11:34:24;;;;;;;10.60;8.30;;;;;;;9.51;81.09;99448.16;5064771;28;20197;-76
2021/11/03 11:36:57;;;;;;;10.60;7.30;;;;;;;9.53;81.28;99444.41;5067761;28;20201;-76
2021/11/03 11:39:36;;;;;;;10.20;6.90;;;;;;;9.55;81.29;99439.84;5065448;28;20209;-76